Strona główna
METAR-TAF:

METAR-TAF

Lotnisko :

Linden, New Jersey, Stany Zjednoczone

Szerokość geograficzna: 40-37-03N, Długość geograficzna: 074-14-40W, wysokość: 7 m

Aktualna obserwacja pogody

Raport powstał 15 minut temu, godzina 22:35 UTC
Cisza
Temperatura 15°C
Wilgotność 51%
Ciśnienie 1016 hPa
Widzialność: 16.1 km
Rozproszone chmury na wysokości 5000 ft
Zachmurzenie całkowite na wysokości 7000 ft

METAR: KLDJ 042235Z AUTO 00000KT 10SM SCT050 OVC070 15/05 A2999 RMK AO2 T01470050

czas: 18:50 (22:50 UTC)


TAF: brakujący

Obserwacja i prognoza pogody dla ponad 4000 lotnisk (raport METAR i TAF).

Dostępne stacje oznaczono żółtymi i czerwonymi punktami na mapie.

Najedź kursorem aby zobaczyć nazwę stacji.

Kliknij aby zobaczyć obserwacje i prognozy pogody.

Aby zmienić mapę: kliknij na zielony przycisk z czarnym krzyżykiem, aby powiększyć; na zielony przycisk z myślnikiem, aby pomniejszyć; na zielone strzałki, aby przejść do map sąsiednich.


METAR-TAF: